sensor_id;sensor_type;location;lat;lon;timestamp;temperature;humidity
3202;DHT22;34843;48.744;8.958;2023-10-19T00:00:52;11.40;99.90
3202;DHT22;34843;48.744;8.958;2023-10-19T00:03:21;11.40;99.90
3202;DHT22;34843;48.744;8.958;2023-10-19T00:05:48;11.40;99.90
3202;DHT22;34843;48.744;8.958;2023-10-19T00:08:14;11.50;99.90
3202;DHT22;34843;48.744;8.958;2023-10-19T00:10:52;11.50;99.90
3202;DHT22;34843;48.744;8.958;2023-10-19T00:13:33;11.50;99.90
3202;DHT22;34843;48.744;8.958;2023-10-19T00:16:01;11.50;99.90
3202;DHT22;34843;48.744;8.958;2023-10-19T00:18:26;11.40;99.90
3202;DHT22;34843;48.744;8.958;2023-10-19T00:20:53;11.40;99.90
3202;DHT22;34843;48.744;8.958;2023-10-19T00:23:36;11.50;99.90
3202;DHT22;34843;48.744;8.958;2023-10-19T00:26:03;11.60;99.90
3202;DHT22;34843;48.744;8.958;2023-10-19T00:28:39;11.70;99.90
3202;DHT22;34843;48.744;8.958;2023-10-19T00:31:06;11.70;99.90
3202;DHT22;34843;48.744;8.958;2023-10-19T00:33:36;11.80;99.90
3202;DHT22;34843;48.744;8.958;2023-10-19T00:36:05;11.80;99.90
3202;DHT22;34843;48.744;8.958;2023-10-19T00:38:40;11.90;99.90
3202;DHT22;34843;48.744;8.958;2023-10-19T00:41:21;11.90;99.90
3202;DHT22;34843;48.744;8.958;2023-10-19T00:43:48;12.00;99.90
3202;DHT22;34843;48.744;8.958;2023-10-19T00:46:23;12.00;99.90
3202;DHT22;34843;48.744;8.958;2023-10-19T00:48:54;11.90;99.90
3202;DHT22;34843;48.744;8.958;2023-10-19T00:51:22;11.90;99.90
3202;DHT22;34843;48.744;8.958;2023-10-19T00:53:55;11.90;99.90
3202;DHT22;34843;48.744;8.958;2023-10-19T00:56:21;11.90;99.90
3202;DHT22;34843;48.744;8.958;2023-10-19T00:58:51;11.90;99.90
3202;DHT22;34843;48.744;8.958;2023-10-19T01:01:27;11.90;99.90
3202;DHT22;34843;48.744;8.958;2023-10-19T01:03:54;11.90;99.90
3202;DHT22;34843;48.744;8.958;2023-10-19T01:06:22;12.00;99.90
3202;DHT22;34843;48.744;8.958;2023-10-19T01:08:48;12.00;99.90
3202;DHT22;34843;48.744;8.958;2023-10-19T01:11:16;11.90;99.90
3202;DHT22;34843;48.744;8.958;2023-10-19T01:13:49;11.80;99.90
3202;DHT22;34843;48.744;8.958;2023-10-19T01:16:17;11.80;99.90
3202;DHT22;34843;48.744;8.958;2023-10-19T01:18:50;11.80;99.90
3202;DHT22;34843;48.744;8.958;2023-10-19T01:21:20;11.80;99.90
3202;DHT22;34843;48.744;8.958;2023-10-19T01:23:46;11.80;99.90
3202;DHT22;34843;48.744;8.958;2023-10-19T01:26:13;11.80;99.90
3202;DHT22;34843;48.744;8.958;2023-10-19T01:28:44;11.70;99.90
3202;DHT22;34843;48.744;8.958;2023-10-19T01:31:14;11.80;99.90
3202;DHT22;34843;48.744;8.958;2023-10-19T01:33:43;11.80;99.90
3202;DHT22;34843;48.744;8.958;2023-10-19T01:36:10;11.80;99.90
3202;DHT22;34843;48.744;8.958;2023-10-19T01:38:36;11.80;99.90
3202;DHT22;34843;48.744;8.958;2023-10-19T01:41:03;11.90;99.90
3202;DHT22;34843;48.744;8.958;2023-10-19T01:43:45;11.90;99.90
3202;DHT22;34843;48.744;8.958;2023-10-19T01:46:13;12.00;99.90
3202;DHT22;34843;48.744;8.958;2023-10-19T01:48:39;12.00;99.90
3202;DHT22;34843;48.744;8.958;2023-10-19T01:51:06;12.00;99.90
3202;DHT22;34843;48.744;8.958;2023-10-19T01:53:36;12.00;99.90
3202;DHT22;34843;48.744;8.958;2023-10-19T01:56:02;12.10;99.90
3202;DHT22;34843;48.744;8.958;2023-10-19T01:58:32;12.10;99.90
3202;DHT22;34843;48.744;8.958;2023-10-19T02:01:02;12.10;99.90
3202;DHT22;34843;48.744;8.958;2023-10-19T02:03:34;12.10;99.90
3202;DHT22;34843;48.744;8.958;2023-10-19T02:06:01;12.10;99.90
3202;DHT22;34843;48.744;8.958;2023-10-19T02:08:36;12.10;99.90
3202;DHT22;34843;48.744;8.958;2023-10-19T02:11:05;12.10;99.90
3202;DHT22;34843;48.744;8.958;2023-10-19T02:13:39;12.10;99.90
3202;DHT22;34843;48.744;8.958;2023-10-19T02:16:05;12.20;99.90
3202;DHT22;34843;48.744;8.958;2023-10-19T02:18:32;12.30;99.90
3202;DHT22;34843;48.744;8.958;2023-10-19T02:21:00;12.30;99.90
3202;DHT22;34843;48.744;8.958;2023-10-19T02:23:28;12.30;99.90
3202;DHT22;34843;48.744;8.958;2023-10-19T02:25:54;12.30;99.90
3202;DHT22;34843;48.744;8.958;2023-10-19T02:28:19;12.20;99.90
3202;DHT22;34843;48.744;8.958;2023-10-19T02:30:54;12.20;99.90
3202;DHT22;34843;48.744;8.958;2023-10-19T02:33:20;12.10;99.90
3202;DHT22;34843;48.744;8.958;2023-10-19T02:35:45;12.00;99.90
3202;DHT22;34843;48.744;8.958;2023-10-19T02:38:13;11.90;99.90
3202;DHT22;34843;48.744;8.958;2023-10-19T02:40:38;11.90;99.90
3202;DHT22;34843;48.744;8.958;2023-10-19T02:43:06;11.80;99.90
3202;DHT22;34843;48.744;8.958;2023-10-19T02:45:31;11.70;99.90
3202;DHT22;34843;48.744;8.958;2023-10-19T02:47:58;11.60;99.90
3202;DHT22;34843;48.744;8.958;2023-10-19T02:50:23;11.60;99.90
3202;DHT22;34843;48.744;8.958;2023-10-19T02:52:52;11.50;99.90
3202;DHT22;34843;48.744;8.958;2023-10-19T02:55:18;11.40;99.90
3202;DHT22;34843;48.744;8.958;2023-10-19T02:57:48;11.40;99.90
3202;DHT22;34843;48.744;8.958;2023-10-19T03:00:15;11.30;99.90
3202;DHT22;34843;48.744;8.958;2023-10-19T03:02:45;11.30;99.90
3202;DHT22;34843;48.744;8.958;2023-10-19T03:05:11;11.20;99.90
3202;DHT22;34843;48.744;8.958;2023-10-19T03:07:41;11.20;99.90
3202;DHT22;34843;48.744;8.958;2023-10-19T03:10:09;11.20;99.90
3202;DHT22;34843;48.744;8.958;2023-10-19T03:12:49;11.10;99.90
3202;DHT22;34843;48.744;8.958;2023-10-19T03:15:15;11.10;99.90
3202;DHT22;34843;48.744;8.958;2023-10-19T03:17:41;11.00;99.90
3202;DHT22;34843;48.744;8.958;2023-10-19T03:20:07;11.00;99.90
3202;DHT22;34843;48.744;8.958;2023-10-19T03:22:32;11.00;99.90
3202;DHT22;34843;48.744;8.958;2023-10-19T03:24:59;11.00;99.90
3202;DHT22;34843;48.744;8.958;2023-10-19T03:27:43;11.00;99.90
3202;DHT22;34843;48.744;8.958;2023-10-19T03:30:10;11.00;99.90
3202;DHT22;34843;48.744;8.958;2023-10-19T03:32:41;11.00;99.90
3202;DHT22;34843;48.744;8.958;2023-10-19T03:35:06;10.90;99.90
3202;DHT22;34843;48.744;8.958;2023-10-19T03:37:32;10.90;99.90
3202;DHT22;34843;48.744;8.958;2023-10-19T03:40:01;10.90;99.90
3202;DHT22;34843;48.744;8.958;2023-10-19T03:42:32;10.80;99.90
3202;DHT22;34843;48.744;8.958;2023-10-19T03:44:58;10.80;99.90
3202;DHT22;34843;48.744;8.958;2023-10-19T03:47:25;10.80;99.90
3202;DHT22;34843;48.744;8.958;2023-10-19T03:49:53;10.80;99.90
3202;DHT22;34843;48.744;8.958;2023-10-19T03:52:19;10.80;99.90
3202;DHT22;34843;48.744;8.958;2023-10-19T03:54:44;10.80;99.90
3202;DHT22;34843;48.744;8.958;2023-10-19T03:57:11;10.80;99.90
3202;DHT22;34843;48.744;8.958;2023-10-19T03:59:41;10.80;99.90
3202;DHT22;34843;48.744;8.958;2023-10-19T04:02:10;10.80;99.90
3202;DHT22;34843;48.744;8.958;2023-10-19T04:04:48;10.80;99.90
3202;DHT22;34843;48.744;8.958;2023-10-19T04:07:17;10.70;99.90
3202;DHT22;34843;48.744;8.958;2023-10-19T04:09:52;10.70;99.90
3202;DHT22;34843;48.744;8.958;2023-10-19T04:12:35;10.60;99.90
3202;DHT22;34843;48.744;8.958;2023-10-19T04:15:02;10.70;99.90
3202;DHT22;34843;48.744;8.958;2023-10-19T04:17:37;10.60;99.90
3202;DHT22;34843;48.744;8.958;2023-10-19T04:20:04;10.60;99.90
3202;DHT22;34843;48.744;8.958;2023-10-19T04:22:54;10.60;99.90
3202;DHT22;34843;48.744;8.958;2023-10-19T04:25:20;10.60;99.90
3202;DHT22;34843;48.744;8.958;2023-10-19T04:27:47;10.60;99.90
3202;DHT22;34843;48.744;8.958;2023-10-19T04:30:15;10.60;99.90
3202;DHT22;34843;48.744;8.958;2023-10-19T04:32:47;10.60;99.90
3202;DHT22;34843;48.744;8.958;2023-10-19T04:35:13;10.60;99.90
3202;DHT22;34843;48.744;8.958;2023-10-19T04:37:40;10.60;99.90
3202;DHT22;34843;48.744;8.958;2023-10-19T04:40:10;10.60;99.90
3202;DHT22;34843;48.744;8.958;2023-10-19T04:42:37;10.60;99.90
3202;DHT22;34843;48.744;8.958;2023-10-19T04:45:03;10.60;99.90
3202;DHT22;34843;48.744;8.958;2023-10-19T04:47:31;10.60;99.90
3202;DHT22;34843;48.744;8.958;2023-10-19T04:49:56;10.50;99.90
3202;DHT22;34843;48.744;8.958;2023-10-19T04:52:22;10.40;99.90
3202;DHT22;34843;48.744;8.958;2023-10-19T04:54:47;10.30;99.90
3202;DHT22;34843;48.744;8.958;2023-10-19T04:57:13;10.30;99.90
3202;DHT22;34843;48.744;8.958;2023-10-19T04:59:38;10.30;99.90
3202;DHT22;34843;48.744;8.958;2023-10-19T05:02:04;10.20;99.90
3202;DHT22;34843;48.744;8.958;2023-10-19T05:04:31;10.20;99.90
3202;DHT22;34843;48.744;8.958;2023-10-19T05:06:56;10.20;99.90
3202;DHT22;34843;48.744;8.958;2023-10-19T05:09:22;10.10;99.90
3202;DHT22;34843;48.744;8.958;2023-10-19T05:11:47;10.10;99.90
3202;DHT22;34843;48.744;8.958;2023-10-19T05:14:13;10.10;99.90
3202;DHT22;34843;48.744;8.958;2023-10-19T05:16:39;10.10;99.90
3202;DHT22;34843;48.744;8.958;2023-10-19T05:19:05;10.10;99.90
3202;DHT22;34843;48.744;8.958;2023-10-19T05:21:31;10.10;99.90
3202;DHT22;34843;48.744;8.958;2023-10-19T05:23:56;10.10;99.90
3202;DHT22;34843;48.744;8.958;2023-10-19T05:26:22;10.30;99.90
3202;DHT22;34843;48.744;8.958;2023-10-19T05:28:48;10.30;99.90
3202;DHT22;34843;48.744;8.958;2023-10-19T05:31:13;10.40;99.90
3202;DHT22;34843;48.744;8.958;2023-10-19T05:33:40;10.30;99.90
3202;DHT22;34843;48.744;8.958;2023-10-19T05:36:06;10.20;99.90
3202;DHT22;34843;48.744;8.958;2023-10-19T05:38:31;10.20;99.90
3202;DHT22;34843;48.744;8.958;2023-10-19T05:41:00;10.20;99.90
3202;DHT22;34843;48.744;8.958;2023-10-19T05:43:26;10.20;99.90
3202;DHT22;34843;48.744;8.958;2023-10-19T05:45:51;10.30;99.90
3202;DHT22;34843;48.744;8.958;2023-10-19T05:48:17;10.40;99.90
3202;DHT22;34843;48.744;8.958;2023-10-19T05:50:43;10.40;99.90
3202;DHT22;34843;48.744;8.958;2023-10-19T05:53:08;10.40;99.90
3202;DHT22;34843;48.744;8.958;2023-10-19T05:55:34;10.40;99.90
3202;DHT22;34843;48.744;8.958;2023-10-19T05:58:01;10.50;99.90
3202;DHT22;34843;48.744;8.958;2023-10-19T06:00:30;10.70;99.90
3202;DHT22;34843;48.744;8.958;2023-10-19T06:02:56;10.80;99.90
3202;DHT22;34843;48.744;8.958;2023-10-19T06:05:23;10.90;99.90
3202;DHT22;34843;48.744;8.958;2023-10-19T06:07:49;11.10;99.90
3202;DHT22;34843;48.744;8.958;2023-10-19T06:10:19;11.20;99.90
3202;DHT22;34843;48.744;8.958;2023-10-19T06:12:47;12.30;99.90
3202;DHT22;34843;48.744;8.958;2023-10-19T06:15:14;11.50;99.90
3202;DHT22;34843;48.744;8.958;2023-10-19T06:17:41;11.70;99.90
3202;DHT22;34843;48.744;8.958;2023-10-19T06:20:08;11.80;99.90
3202;DHT22;34843;48.744;8.958;2023-10-19T06:22:47;11.90;99.90
3202;DHT22;34843;48.744;8.958;2023-10-19T06:25:19;12.00;99.90
3202;DHT22;34843;48.744;8.958;2023-10-19T06:27:47;12.10;99.90
3202;DHT22;34843;48.744;8.958;2023-10-19T06:30:14;12.20;99.90
3202;DHT22;34843;48.744;8.958;2023-10-19T06:32:45;12.30;99.90
3202;DHT22;34843;48.744;8.958;2023-10-19T06:35:10;12.30;99.90
3202;DHT22;34843;48.744;8.958;2023-10-19T06:37:36;12.40;99.90
3202;DHT22;34843;48.744;8.958;2023-10-19T06:40:02;12.40;99.90
3202;DHT22;34843;48.744;8.958;2023-10-19T06:42:28;12.40;99.90
3202;DHT22;34843;48.744;8.958;2023-10-19T06:44:53;12.40;99.90
3202;DHT22;34843;48.744;8.958;2023-10-19T06:47:22;12.40;99.90
3202;DHT22;34843;48.744;8.958;2023-10-19T06:49:48;12.50;99.90
3202;DHT22;34843;48.744;8.958;2023-10-19T06:52:14;12.60;99.90
3202;DHT22;34843;48.744;8.958;2023-10-19T06:54:41;12.60;99.90
3202;DHT22;34843;48.744;8.958;2023-10-19T06:57:07;12.70;99.90
3202;DHT22;34843;48.744;8.958;2023-10-19T06:59:35;12.70;99.90
3202;DHT22;34843;48.744;8.958;2023-10-19T07:02:02;12.80;99.90
3202;DHT22;34843;48.744;8.958;2023-10-19T07:04:28;12.90;99.90
3202;DHT22;34843;48.744;8.958;2023-10-19T07:06:54;13.00;99.90
3202;DHT22;34843;48.744;8.958;2023-10-19T07:09:20;13.10;99.90
3202;DHT22;34843;48.744;8.958;2023-10-19T07:11:46;13.20;99.90
3202;DHT22;34843;48.744;8.958;2023-10-19T07:14:12;13.30;99.90
3202;DHT22;34843;48.744;8.958;2023-10-19T07:16:41;13.30;99.90
3202;DHT22;34843;48.744;8.958;2023-10-19T07:19:07;13.30;99.90
3202;DHT22;34843;48.744;8.958;2023-10-19T07:21:35;13.20;99.90
3202;DHT22;34843;48.744;8.958;2023-10-19T07:24:02;13.10;99.90
3202;DHT22;34843;48.744;8.958;2023-10-19T07:26:31;13.10;99.90
3202;DHT22;34843;48.744;8.958;2023-10-19T07:28:59;13.10;99.90
3202;DHT22;34843;48.744;8.958;2023-10-19T07:31:25;13.10;99.90
3202;DHT22;34843;48.744;8.958;2023-10-19T07:33:53;13.20;99.90
3202;DHT22;34843;48.744;8.958;2023-10-19T07:36:21;13.20;99.90
3202;DHT22;34843;48.744;8.958;2023-10-19T07:38:47;13.30;99.90
3202;DHT22;34843;48.744;8.958;2023-10-19T07:41:13;13.40;99.90
3202;DHT22;34843;48.744;8.958;2023-10-19T07:43:39;13.50;99.90
3202;DHT22;34843;48.744;8.958;2023-10-19T07:46:04;13.60;99.90
3202;DHT22;34843;48.744;8.958;2023-10-19T07:48:30;13.70;99.90
3202;DHT22;34843;48.744;8.958;2023-10-19T07:50:55;13.80;99.90
3202;DHT22;34843;48.744;8.958;2023-10-19T07:53:21;13.90;99.90
3202;DHT22;34843;48.744;8.958;2023-10-19T07:55:47;14.00;99.90
3202;DHT22;34843;48.744;8.958;2023-10-19T07:58:12;14.20;99.90
3202;DHT22;34843;48.744;8.958;2023-10-19T08:00:38;14.10;99.90
3202;DHT22;34843;48.744;8.958;2023-10-19T08:03:05;14.20;99.90
3202;DHT22;34843;48.744;8.958;2023-10-19T08:05:31;14.30;99.90
3202;DHT22;34843;48.744;8.958;2023-10-19T08:07:57;14.30;99.90
3202;DHT22;34843;48.744;8.958;2023-10-19T08:10:24;14.30;99.90
3202;DHT22;34843;48.744;8.958;2023-10-19T08:12:50;14.40;99.90
3202;DHT22;34843;48.744;8.958;2023-10-19T08:15:17;14.50;99.90
3202;DHT22;34843;48.744;8.958;2023-10-19T08:17:46;14.60;99.90
3202;DHT22;34843;48.744;8.958;2023-10-19T08:20:13;14.90;99.90
3202;DHT22;34843;48.744;8.958;2023-10-19T08:22:43;15.20;99.90
3202;DHT22;34843;48.744;8.958;2023-10-19T08:25:11;15.50;99.90
3202;DHT22;34843;48.744;8.958;2023-10-19T08:27:40;15.70;99.90
3202;DHT22;34843;48.744;8.958;2023-10-19T08:30:07;16.00;99.90
3202;DHT22;34843;48.744;8.958;2023-10-19T08:32:34;16.40;99.90
3202;DHT22;34843;48.744;8.958;2023-10-19T08:35:01;16.60;99.90
3202;DHT22;34843;48.744;8.958;2023-10-19T08:37:27;16.70;99.90
3202;DHT22;34843;48.744;8.958;2023-10-19T08:39:53;16.70;99.90
3202;DHT22;34843;48.744;8.958;2023-10-19T08:42:19;16.70;99.90
3202;DHT22;34843;48.744;8.958;2023-10-19T08:44:45;16.70;99.90
3202;DHT22;34843;48.744;8.958;2023-10-19T08:47:11;16.80;99.90
3202;DHT22;34843;48.744;8.958;2023-10-19T08:49:37;16.80;99.90
3202;DHT22;34843;48.744;8.958;2023-10-19T08:52:04;16.90;99.90
3202;DHT22;34843;48.744;8.958;2023-10-19T08:54:32;16.80;99.90
3202;DHT22;34843;48.744;8.958;2023-10-19T08:56:59;16.70;99.90
3202;DHT22;34843;48.744;8.958;2023-10-19T08:59:25;16.60;99.90
3202;DHT22;34843;48.744;8.958;2023-10-19T09:01:50;16.50;99.90
3202;DHT22;34843;48.744;8.958;2023-10-19T09:04:16;16.60;99.90
3202;DHT22;34843;48.744;8.958;2023-10-19T09:06:42;16.70;99.90
3202;DHT22;34843;48.744;8.958;2023-10-19T09:09:12;16.80;99.90
3202;DHT22;34843;48.744;8.958;2023-10-19T09:11:48;17.00;99.90
3202;DHT22;34843;48.744;8.958;2023-10-19T09:14:15;17.20;99.90
3202;DHT22;34843;48.744;8.958;2023-10-19T09:16:56;17.30;99.90
3202;DHT22;34843;48.744;8.958;2023-10-19T09:22:01;17.50;99.90
3202;DHT22;34843;48.744;8.958;2023-10-19T09:24:35;17.50;99.90
3202;DHT22;34843;48.744;8.958;2023-10-19T09:27:04;17.50;99.90
3202;DHT22;34843;48.744;8.958;2023-10-19T09:29:30;17.50;99.90
3202;DHT22;34843;48.744;8.958;2023-10-19T09:31:59;17.60;99.90
3202;DHT22;34843;48.744;8.958;2023-10-19T09:34:30;17.80;99.90
3202;DHT22;34843;48.744;8.958;2023-10-19T09:37:03;18.00;99.90
3202;DHT22;34843;48.744;8.958;2023-10-19T09:39:30;18.00;99.90
3202;DHT22;34843;48.744;8.958;2023-10-19T09:42:08;18.10;99.90
3202;DHT22;34843;48.744;8.958;2023-10-19T09:44:41;18.10;99.90
3202;DHT22;34843;48.744;8.958;2023-10-19T09:47:12;18.20;99.90
3202;DHT22;34843;48.744;8.958;2023-10-19T09:49:42;18.30;99.90
3202;DHT22;34843;48.744;8.958;2023-10-19T09:52:12;18.40;99.90
3202;DHT22;34843;48.744;8.958;2023-10-19T09:55:19;18.60;99.90
3202;DHT22;34843;48.744;8.958;2023-10-19T09:58:16;18.70;99.90
3202;DHT22;34843;48.744;8.958;2023-10-19T10:00:48;18.60;99.90
3202;DHT22;34843;48.744;8.958;2023-10-19T10:06:11;18.40;99.90
3202;DHT22;34843;48.744;8.958;2023-10-19T10:08:42;18.50;99.90
3202;DHT22;34843;48.744;8.958;2023-10-19T10:11:20;18.60;99.90
3202;DHT22;34843;48.744;8.958;2023-10-19T10:13:46;18.60;99.90
3202;DHT22;34843;48.744;8.958;2023-10-19T10:16:24;18.70;99.90
3202;DHT22;34843;48.744;8.958;2023-10-19T10:18:51;18.70;99.90
3202;DHT22;34843;48.744;8.958;2023-10-19T10:21:23;18.60;99.90
3202;DHT22;34843;48.744;8.958;2023-10-19T10:23:58;18.50;99.90
3202;DHT22;34843;48.744;8.958;2023-10-19T10:26:26;18.60;99.90
3202;DHT22;34843;48.744;8.958;2023-10-19T10:31:46;18.70;99.90
3202;DHT22;34843;48.744;8.958;2023-10-19T10:37:13;18.90;99.90
3202;DHT22;34843;48.744;8.958;2023-10-19T10:39:40;18.90;99.90
3202;DHT22;34843;48.744;8.958;2023-10-19T10:42:07;19.00;99.90
3202;DHT22;34843;48.744;8.958;2023-10-19T10:44:47;19.10;99.90
3202;DHT22;34843;48.744;8.958;2023-10-19T10:47:18;19.00;99.90
3202;DHT22;34843;48.744;8.958;2023-10-19T10:49:52;18.90;99.90
3202;DHT22;34843;48.744;8.958;2023-10-19T10:54:50;18.80;99.90
3202;DHT22;34843;48.744;8.958;2023-10-19T10:57:15;18.80;99.90
3202;DHT22;34843;48.744;8.958;2023-10-19T10:59:41;18.70;99.90
3202;DHT22;34843;48.744;8.958;2023-10-19T11:02:17;18.70;99.90
3202;DHT22;34843;48.744;8.958;2023-10-19T11:04:44;18.70;99.90
3202;DHT22;34843;48.744;8.958;2023-10-19T11:07:17;18.70;99.90
3202;DHT22;34843;48.744;8.958;2023-10-19T11:09:44;18.50;99.90
3202;DHT22;34843;48.744;8.958;2023-10-19T11:12:11;18.40;99.90
3202;DHT22;34843;48.744;8.958;2023-10-19T11:14:37;18.10;99.90
3202;DHT22;34843;48.744;8.958;2023-10-19T11:17:12;17.80;99.90
3202;DHT22;34843;48.744;8.958;2023-10-19T11:19:41;17.70;99.90
3202;DHT22;34843;48.744;8.958;2023-10-19T11:22:09;17.50;99.90
3202;DHT22;34843;48.744;8.958;2023-10-19T11:24:35;17.30;99.90
3202;DHT22;34843;48.744;8.958;2023-10-19T11:27:05;17.10;99.90
3202;DHT22;34843;48.744;8.958;2023-10-19T11:29:33;16.90;99.90
3202;DHT22;34843;48.744;8.958;2023-10-19T11:32:00;16.60;99.90
3202;DHT22;34843;48.744;8.958;2023-10-19T11:34:25;16.40;99.90
3202;DHT22;34843;48.744;8.958;2023-10-19T11:36:56;16.40;99.90
3202;DHT22;34843;48.744;8.958;2023-10-19T11:39:28;16.30;99.90
3202;DHT22;34843;48.744;8.958;2023-10-19T11:41:54;16.10;99.90
3202;DHT22;34843;48.744;8.958;2023-10-19T11:44:19;16.00;99.90
3202;DHT22;34843;48.744;8.958;2023-10-19T11:46:45;15.90;99.90
3202;DHT22;34843;48.744;8.958;2023-10-19T11:49:11;15.80;99.90
3202;DHT22;34843;48.744;8.958;2023-10-19T11:51:37;15.70;99.90
3202;DHT22;34843;48.744;8.958;2023-10-19T11:54:04;15.60;99.90
3202;DHT22;34843;48.744;8.958;2023-10-19T11:56:31;15.60;99.90
3202;DHT22;34843;48.744;8.958;2023-10-19T11:58:57;15.60;99.90
3202;DHT22;34843;48.744;8.958;2023-10-19T12:01:23;15.60;99.90
3202;DHT22;34843;48.744;8.958;2023-10-19T12:03:50;15.60;99.90
3202;DHT22;34843;48.744;8.958;2023-10-19T12:06:16;15.60;99.90
3202;DHT22;34843;48.744;8.958;2023-10-19T12:08:46;15.50;99.90
3202;DHT22;34843;48.744;8.958;2023-10-19T12:11:12;15.50;99.90
3202;DHT22;34843;48.744;8.958;2023-10-19T12:13:41;15.40;99.90
3202;DHT22;34843;48.744;8.958;2023-10-19T12:16:09;15.40;99.90
3202;DHT22;34843;48.744;8.958;2023-10-19T12:18:40;15.50;99.90
3202;DHT22;34843;48.744;8.958;2023-10-19T12:21:07;15.40;99.90
3202;DHT22;34843;48.744;8.958;2023-10-19T12:23:40;15.50;99.90
3202;DHT22;34843;48.744;8.958;2023-10-19T12:26:06;15.60;99.90
3202;DHT22;34843;48.744;8.958;2023-10-19T12:28:37;15.60;99.90
3202;DHT22;34843;48.744;8.958;2023-10-19T12:31:03;15.60;99.90
3202;DHT22;34843;48.744;8.958;2023-10-19T12:33:30;15.60;99.90
3202;DHT22;34843;48.744;8.958;2023-10-19T12:35:56;15.60;99.90
3202;DHT22;34843;48.744;8.958;2023-10-19T12:38:24;15.70;99.90
3202;DHT22;34843;48.744;8.958;2023-10-19T12:40:51;15.70;99.90
3202;DHT22;34843;48.744;8.958;2023-10-19T12:43:17;15.60;99.90
3202;DHT22;34843;48.744;8.958;2023-10-19T12:45:44;15.50;99.90
3202;DHT22;34843;48.744;8.958;2023-10-19T12:48:16;15.60;99.90
3202;DHT22;34843;48.744;8.958;2023-10-19T12:50:41;15.70;99.90
3202;DHT22;34843;48.744;8.958;2023-10-19T12:53:07;15.80;99.90
3202;DHT22;34843;48.744;8.958;2023-10-19T12:55:34;15.90;99.90
3202;DHT22;34843;48.744;8.958;2023-10-19T12:58:00;15.90;99.90
3202;DHT22;34843;48.744;8.958;2023-10-19T13:00:33;15.90;99.90
3202;DHT22;34843;48.744;8.958;2023-10-19T13:03:04;15.90;99.90
3202;DHT22;34843;48.744;8.958;2023-10-19T13:05:37;15.70;99.90
3202;DHT22;34843;48.744;8.958;2023-10-19T13:08:15;15.60;99.90
3202;DHT22;34843;48.744;8.958;2023-10-19T13:10:45;15.40;99.90
3202;DHT22;34843;48.744;8.958;2023-10-19T13:13:12;15.40;99.90
3202;DHT22;34843;48.744;8.958;2023-10-19T13:15:39;15.40;99.90
3202;DHT22;34843;48.744;8.958;2023-10-19T13:18:07;15.50;99.90
3202;DHT22;34843;48.744;8.958;2023-10-19T13:20:35;15.50;99.90
3202;DHT22;34843;48.744;8.958;2023-10-19T13:23:06;15.60;99.90
3202;DHT22;34843;48.744;8.958;2023-10-19T13:25:36;15.60;99.90
3202;DHT22;34843;48.744;8.958;2023-10-19T13:28:13;15.60;99.90
3202;DHT22;34843;48.744;8.958;2023-10-19T13:30:45;15.60;99.90
3202;DHT22;34843;48.744;8.958;2023-10-19T13:33:13;15.50;99.90
3202;DHT22;34843;48.744;8.958;2023-10-19T13:35:40;15.50;99.90
3202;DHT22;34843;48.744;8.958;2023-10-19T13:38:07;15.40;99.90
3202;DHT22;34843;48.744;8.958;2023-10-19T13:40:34;15.40;99.90
3202;DHT22;34843;48.744;8.958;2023-10-19T13:42:59;15.40;99.90
3202;DHT22;34843;48.744;8.958;2023-10-19T13:45:25;15.40;99.90
3202;DHT22;34843;48.744;8.958;2023-10-19T13:47:51;15.40;99.90
3202;DHT22;34843;48.744;8.958;2023-10-19T13:50:21;15.50;99.90
3202;DHT22;34843;48.744;8.958;2023-10-19T13:52:49;15.60;99.90
3202;DHT22;34843;48.744;8.958;2023-10-19T13:55:15;15.60;99.90
3202;DHT22;34843;48.744;8.958;2023-10-19T13:57:44;15.70;99.90
3202;DHT22;34843;48.744;8.958;2023-10-19T14:00:11;15.70;99.90
3202;DHT22;34843;48.744;8.958;2023-10-19T14:02:45;15.70;99.90
3202;DHT22;34843;48.744;8.958;2023-10-19T14:05:10;15.80;99.90
3202;DHT22;34843;48.744;8.958;2023-10-19T14:07:36;15.80;99.90
3202;DHT22;34843;48.744;8.958;2023-10-19T14:10:08;15.80;99.90
3202;DHT22;34843;48.744;8.958;2023-10-19T14:12:37;15.90;99.90
3202;DHT22;34843;48.744;8.958;2023-10-19T14:15:03;16.00;99.90
3202;DHT22;34843;48.744;8.958;2023-10-19T14:17:29;16.00;99.90
3202;DHT22;34843;48.744;8.958;2023-10-19T14:19:55;15.90;99.90
3202;DHT22;34843;48.744;8.958;2023-10-19T14:22:21;15.70;99.90
3202;DHT22;34843;48.744;8.958;2023-10-19T14:24:46;15.70;99.90
3202;DHT22;34843;48.744;8.958;2023-10-19T14:27:12;15.60;99.90
3202;DHT22;34843;48.744;8.958;2023-10-19T14:29:39;15.60;99.90
3202;DHT22;34843;48.744;8.958;2023-10-19T14:32:04;15.50;99.90
3202;DHT22;34843;48.744;8.958;2023-10-19T14:34:30;15.50;99.90
3202;DHT22;34843;48.744;8.958;2023-10-19T14:36:55;15.50;99.90
3202;DHT22;34843;48.744;8.958;2023-10-19T14:39:21;15.50;99.90
3202;DHT22;34843;48.744;8.958;2023-10-19T14:41:47;15.50;99.90
3202;DHT22;34843;48.744;8.958;2023-10-19T14:44:12;15.50;99.90
3202;DHT22;34843;48.744;8.958;2023-10-19T14:46:38;15.50;99.90
3202;DHT22;34843;48.744;8.958;2023-10-19T14:49:04;15.50;99.90
3202;DHT22;34843;48.744;8.958;2023-10-19T14:51:30;15.40;99.90
3202;DHT22;34843;48.744;8.958;2023-10-19T14:53:56;15.40;99.90
3202;DHT22;34843;48.744;8.958;2023-10-19T14:56:21;15.40;99.90
3202;DHT22;34843;48.744;8.958;2023-10-19T14:58:47;15.30;99.90
3202;DHT22;34843;48.744;8.958;2023-10-19T15:01:12;15.30;99.90
3202;DHT22;34843;48.744;8.958;2023-10-19T15:03:42;15.40;99.90
3202;DHT22;34843;48.744;8.958;2023-10-19T15:06:08;15.50;99.90
3202;DHT22;34843;48.744;8.958;2023-10-19T15:08:34;15.60;99.90
3202;DHT22;34843;48.744;8.958;2023-10-19T15:10:59;15.70;99.90
3202;DHT22;34843;48.744;8.958;2023-10-19T15:13:25;15.70;99.90
3202;DHT22;34843;48.744;8.958;2023-10-19T15:15:51;15.60;99.90
3202;DHT22;34843;48.744;8.958;2023-10-19T15:18:17;15.70;99.90
3202;DHT22;34843;48.744;8.958;2023-10-19T15:20:43;15.70;99.90
3202;DHT22;34843;48.744;8.958;2023-10-19T15:23:09;15.70;99.90
3202;DHT22;34843;48.744;8.958;2023-10-19T15:25:36;15.70;99.90
3202;DHT22;34843;48.744;8.958;2023-10-19T15:28:05;15.80;99.90
3202;DHT22;34843;48.744;8.958;2023-10-19T15:30:30;15.80;99.90
3202;DHT22;34843;48.744;8.958;2023-10-19T15:32:56;15.70;99.90
3202;DHT22;34843;48.744;8.958;2023-10-19T15:35:22;15.60;99.90
3202;DHT22;34843;48.744;8.958;2023-10-19T15:37:49;15.50;99.90
3202;DHT22;34843;48.744;8.958;2023-10-19T15:40:15;15.50;99.90
3202;DHT22;34843;48.744;8.958;2023-10-19T15:42:42;15.50;99.90
3202;DHT22;34843;48.744;8.958;2023-10-19T15:45:14;15.40;99.90
3202;DHT22;34843;48.744;8.958;2023-10-19T15:47:43;15.40;99.90
3202;DHT22;34843;48.744;8.958;2023-10-19T15:50:09;15.40;99.90
3202;DHT22;34843;48.744;8.958;2023-10-19T15:52:35;15.40;99.90
3202;DHT22;34843;48.744;8.958;2023-10-19T15:55:05;15.30;99.90
3202;DHT22;34843;48.744;8.958;2023-10-19T15:57:31;15.40;99.90
3202;DHT22;34843;48.744;8.958;2023-10-19T15:59:58;15.30;99.90
3202;DHT22;34843;48.744;8.958;2023-10-19T16:02:24;15.30;99.90
3202;DHT22;34843;48.744;8.958;2023-10-19T16:04:49;15.30;99.90